Hollins College, Virginia
Current Conditions -  °F | °C
As of 4:54 AM on Monday 22 Dec 2014 (Local Time) from KROA Reporting Station
Overcast Overcast  
Wind Chill: 33°   Ceiling: 2600
Heat Index: 37°   Visibility: 10mi
Dew Point: 27°   Wind: 5mph
Humidity: 67%   Direction: 150°SSE
Pressure: 30.2"   Gusts: NA
Location:  37.3533°N, 79.9353°W
Report Text: KROA 220954Z 15004KT 10SM OVC026 03/M03 A3020 RMK AO2 SLP233 T00281028
Loading
Personal Weather Stations






























Interactive Weather Map New forecast layout! Learn more

10-Day Weather Forecast

Advertisements
Track Severe Weather on mobile